PWSweather.com
Personal Weather Stations
Station Observations
CEDARGROVEHUB
Johnstown, Edwardsburghcardinal, ON K0E1T1

JohnstownEdwardsburghcardinal, ON K0E1T1

Lat: 44.742023, Lon: -75.5236

Elevation: 294

Station Type: ACURITE 5-in-1

https://webcam.io/webcams/W9RaVM

Latest ConditionsUpdated 9:50:01 PM EDT Monday, May 20, 2019
Currently Today's Max Today's Min Today's Average
Temperature 54.1°F12.3°C 73.8°F23.2°C 54.1°F12.3°C 63.3°F17.4°C
Dew Point 47.4°F8.6°C 63.3°F17.4°C 47.1°F8.4°C 57.6°F14.2°C
Winds 10.4 mph W16.7 kmh W 27.6 mph -44.4 kmh - - 10.8 mph 17.4 kmh
Wind Gusts 4.6 mph7.4 kmh 18.4 mph29.6 kmh - -
Humidity 78% 99% 55% 83%
Pressure 29.78 in1008.5 mb 29.78 in1008.5 mb 29.60 in1002.4 mb -
Precipitation - 0.01 in0.3 mm - -
Hour Temp Dew Point Humidity Winds Wind Gusts Pressure Precip Precip Rate Daily Precip Total
09:50 PM 54.1°F12.3°C 47.4°F8.6°C 78% 10.4 mph W16.7 kmh W 4.6 mph7.4 kmh 29.78 in1008.5 mb - 0.00 in0.0 mm 0.01 in0.3 mm
09:45 PM 54.5°F12.5°C 47.4°F8.6°C 77% 5.8 mph WSW9.3 kmh WSW 3.5 mph5.6 kmh 29.78 in1008.5 mb - 0.00 in0.0 mm 0.01 in0.3 mm
09:40 PM 54.5°F12.5°C 47.4°F8.6°C 77% 9.2 mph WSW14.8 kmh WSW 4.6 mph7.4 kmh 29.78 in1008.5 mb - 0.00 in0.0 mm 0.01 in0.3 mm
09:35 PM 54.7°F12.6°C 47.3°F8.5°C 76% 11.5 mph W18.5 kmh W 4.6 mph7.4 kmh 29.77 in1008.1 mb - 0.00 in0.0 mm 0.01 in0.3 mm
09:30 PM 54.9°F12.7°C 47.1°F8.4°C 75% 10.4 mph W16.7 kmh W 5.8 mph9.3 kmh 29.77 in1008.1 mb - 0.00 in0.0 mm 0.01 in0.3 mm
09:25 PM 55.0°F12.8°C 47.2°F8.4°C 75% 12.7 mph W20.4 kmh W 8.1 mph13.0 kmh 29.77 in1008.1 mb - 0.00 in0.0 mm 0.01 in0.3 mm
09:20 PM 55.2°F12.9°C 47.4°F8.6°C 75% 11.5 mph W18.5 kmh W 6.9 mph11.1 kmh 29.77 in1008.1 mb - 0.00 in0.0 mm 0.01 in0.3 mm
09:15 PM 55.4°F13.0°C 47.6°F8.7°C 75% 8.1 mph S13.0 kmh S 4.6 mph7.4 kmh 29.76 in1007.8 mb - 0.00 in0.0 mm 0.01 in0.3 mm
09:10 PM 55.6°F13.1°C 47.8°F8.8°C 75% 6.9 mph WNW11.1 kmh WNW 4.6 mph7.4 kmh 29.75 in1007.5 mb - 0.00 in0.0 mm 0.01 in0.3 mm
09:00 PM 55.9°F13.3°C 48.1°F8.9°C 75% 13.8 mph WNW22.2 kmh WNW 8.1 mph13.0 kmh 29.75 in1007.5 mb - 0.00 in0.0 mm 0.01 in0.3 mm
08:55 PM 56.1°F13.4°C 47.9°F8.8°C 74% 9.2 mph WSW14.8 kmh WSW 5.8 mph9.3 kmh 29.75 in1007.5 mb - 0.00 in0.0 mm 0.01 in0.3 mm
08:50 PM 56.5°F13.6°C 48.6°F9.2°C 75% 9.2 mph NNW14.8 kmh NNW 5.8 mph9.3 kmh 29.74 in1007.1 mb - 0.00 in0.0 mm 0.01 in0.3 mm
08:45 PM 56.7°F13.7°C 48.1°F8.9°C 73% 5.8 mph WSW9.3 kmh WSW 4.6 mph7.4 kmh 29.74 in1007.1 mb - 0.00 in0.0 mm 0.01 in0.3 mm
08:40 PM 56.9°F13.8°C 48.3°F9.1°C 73% 12.7 mph W20.4 kmh W 5.8 mph9.3 kmh 29.74 in1007.1 mb - 0.00 in0.0 mm 0.01 in0.3 mm
08:35 PM 57.4°F14.1°C 48.1°F8.9°C 71% 17.3 mph W27.8 kmh W 6.9 mph11.1 kmh 29.73 in1006.8 mb - 0.00 in0.0 mm 0.01 in0.3 mm
08:30 PM 57.5°F14.2°C 48.2°F9.0°C 71% 11.5 mph SW18.5 kmh SW 6.9 mph11.1 kmh 29.73 in1006.8 mb - 0.00 in0.0 mm 0.01 in0.3 mm
08:25 PM 57.7°F14.3°C 48.4°F9.1°C 71% 11.5 mph W18.5 kmh W 6.9 mph11.1 kmh 29.72 in1006.4 mb - 0.00 in0.0 mm 0.01 in0.3 mm
08:20 PM 58.0°F14.4°C 48.3°F9.1°C 70% 15.0 mph W24.1 kmh W 9.2 mph14.8 kmh 29.72 in1006.4 mb - 0.00 in0.0 mm 0.01 in0.3 mm
08:15 PM 58.4°F14.7°C 48.6°F9.2°C 70% 12.7 mph NW20.4 kmh NW 6.9 mph11.1 kmh 29.71 in1006.1 mb - 0.00 in0.0 mm 0.01 in0.3 mm
08:10 PM 58.6°F14.8°C 48.8°F9.3°C 70% 10.4 mph WSW16.7 kmh WSW 5.8 mph9.3 kmh 29.71 in1006.1 mb - 0.00 in0.0 mm 0.01 in0.3 mm
08:00 PM 59.5°F15.3°C 49.3°F9.6°C 69% 15.0 mph W24.1 kmh W 8.1 mph13.0 kmh 29.70 in1005.8 mb - 0.00 in0.0 mm 0.01 in0.3 mm
07:55 PM 59.7°F15.4°C 49.9°F9.9°C 70% 13.8 mph NW22.2 kmh NW 6.9 mph11.1 kmh 29.70 in1005.8 mb - 0.00 in0.0 mm 0.01 in0.3 mm
07:50 PM 59.9°F15.5°C 49.3°F9.6°C 68% 11.5 mph WSW18.5 kmh WSW 5.8 mph9.3 kmh 29.69 in1005.4 mb - 0.00 in0.0 mm 0.01 in0.3 mm
07:45 PM 60.4°F15.8°C 49.8°F9.9°C 68% 8.1 mph WSW13.0 kmh WSW 4.6 mph7.4 kmh 29.69 in1005.4 mb - 0.00 in0.0 mm 0.01 in0.3 mm
07:40 PM 60.8°F16.0°C 49.4°F9.7°C 66% 9.2 mph WSW14.8 kmh WSW 4.6 mph7.4 kmh 29.69 in1005.4 mb - 0.00 in0.0 mm 0.01 in0.3 mm
07:35 PM 61.5°F16.4°C 49.6°F9.8°C 65% 10.4 mph WSW16.7 kmh WSW 5.8 mph9.3 kmh 29.68 in1005.1 mb - 0.00 in0.0 mm 0.01 in0.3 mm
07:30 PM 62.2°F16.8°C 49.9°F9.9°C 64% 10.4 mph NW16.7 kmh NW 4.6 mph7.4 kmh 29.68 in1005.1 mb - 0.00 in0.0 mm 0.01 in0.3 mm
07:25 PM 62.9°F17.2°C 50.1°F10.1°C 63% 15.0 mph W24.1 kmh W 8.1 mph13.0 kmh 29.68 in1005.1 mb - 0.00 in0.0 mm 0.01 in0.3 mm
07:20 PM 63.1°F17.3°C 49.9°F9.9°C 62% 10.4 mph WSW16.7 kmh WSW 4.6 mph7.4 kmh 29.68 in1005.1 mb - 0.00 in0.0 mm 0.01 in0.3 mm
07:15 PM 63.3°F17.4°C 50.1°F10.1°C 62% 11.5 mph W18.5 kmh W 8.1 mph13.0 kmh 29.67 in1004.7 mb - 0.00 in0.0 mm 0.01 in0.3 mm
07:10 PM 63.9°F17.7°C 50.2°F10.1°C 61% 13.8 mph NW22.2 kmh NW 6.9 mph11.1 kmh 29.67 in1004.7 mb - 0.00 in0.0 mm 0.01 in0.3 mm
07:00 PM 64.4°F18.0°C 51.1°F10.6°C 62% 16.1 mph WSW25.9 kmh WSW 10.4 mph16.7 kmh 29.67 in1004.7 mb - 0.00 in0.0 mm 0.01 in0.3 mm
06:55 PM 64.4°F18.0°C 52.0°F11.1°C 64% 9.2 mph WSW14.8 kmh WSW 5.8 mph9.3 kmh 29.67 in1004.7 mb - 0.00 in0.0 mm 0.01 in0.3 mm
06:50 PM 64.4°F18.0°C 52.0°F11.1°C 64% 11.5 mph W18.5 kmh W 4.6 mph7.4 kmh 29.66 in1004.4 mb - 0.00 in0.0 mm 0.01 in0.3 mm
06:45 PM 64.6°F18.1°C 51.3°F10.7°C 62% 8.1 mph SW13.0 kmh SW 6.9 mph11.1 kmh 29.66 in1004.4 mb - 0.00 in0.0 mm 0.01 in0.3 mm
06:40 PM 64.6°F18.1°C 51.3°F10.7°C 62% 6.9 mph SW11.1 kmh SW 3.5 mph5.6 kmh 29.66 in1004.4 mb - 0.00 in0.0 mm 0.01 in0.3 mm
06:35 PM 64.6°F18.1°C 51.3°F10.7°C 62% 16.1 mph WSW25.9 kmh WSW 9.2 mph14.8 kmh 29.66 in1004.4 mb - 0.00 in0.0 mm 0.01 in0.3 mm
06:30 PM 64.8°F18.2°C 51.5°F10.8°C 62% 15.0 mph SW24.1 kmh SW 8.1 mph13.0 kmh 29.66 in1004.4 mb - 0.00 in0.0 mm 0.01 in0.3 mm
06:25 PM 65.1°F18.4°C 52.6°F11.4°C 64% 13.8 mph SW22.2 kmh SW 8.1 mph13.0 kmh 29.66 in1004.4 mb - 0.00 in0.0 mm 0.01 in0.3 mm
06:20 PM 65.3°F18.5°C 52.8°F11.6°C 64% 11.5 mph WSW18.5 kmh WSW 5.8 mph9.3 kmh 29.66 in1004.4 mb - 0.00 in0.0 mm 0.01 in0.3 mm
06:15 PM 65.3°F18.5°C 51.9°F11.1°C 62% 17.3 mph SW27.8 kmh SW 9.2 mph14.8 kmh 29.66 in1004.4 mb - 0.00 in0.0 mm 0.01 in0.3 mm
06:10 PM 65.8°F18.8°C 52.4°F11.3°C 62% 13.8 mph SW22.2 kmh SW 8.1 mph13.0 kmh 29.66 in1004.4 mb - 0.00 in0.0 mm 0.01 in0.3 mm
06:00 PM 67.1°F19.5°C 53.6°F12.0°C 62% 13.8 mph WSW22.2 kmh WSW 9.2 mph14.8 kmh 29.65 in1004.1 mb - 0.00 in0.0 mm 0.01 in0.3 mm
05:55 PM 67.3°F19.6°C 53.8°F12.1°C 62% 10.4 mph SW16.7 kmh SW 6.9 mph11.1 kmh 29.65 in1004.1 mb - 0.00 in0.0 mm 0.01 in0.3 mm
05:50 PM 67.2°F19.6°C 53.3°F11.8°C 61% 11.5 mph WSW18.5 kmh WSW 6.9 mph11.1 kmh 29.65 in1004.1 mb - 0.00 in0.0 mm 0.01 in0.3 mm
05:45 PM 66.9°F19.4°C 53.5°F11.9°C 62% 17.3 mph WSW27.8 kmh WSW 10.4 mph16.7 kmh 29.65 in1004.1 mb - 0.00 in0.0 mm 0.01 in0.3 mm
05:40 PM 66.9°F19.4°C 53.5°F11.9°C 62% 15.0 mph SW24.1 kmh SW 8.1 mph13.0 kmh 29.65 in1004.1 mb - 0.00 in0.0 mm 0.01 in0.3 mm
05:35 PM 67.2°F19.6°C 53.7°F12.1°C 62% 17.3 mph SW27.8 kmh SW 11.5 mph18.5 kmh 29.65 in1004.1 mb - 0.00 in0.0 mm 0.01 in0.3 mm
05:30 PM 67.6°F19.8°C 54.5°F12.5°C 63% 9.2 mph SSW14.8 kmh SSW 8.1 mph13.0 kmh 29.65 in1004.1 mb - 0.00 in0.0 mm 0.01 in0.3 mm
05:25 PM 67.6°F19.8°C 55.0°F12.8°C 64% 12.7 mph WSW20.4 kmh WSW 5.8 mph9.3 kmh 29.64 in1003.7 mb - 0.00 in0.0 mm 0.01 in0.3 mm
05:20 PM 67.5°F19.7°C 54.9°F12.7°C 64% 11.5 mph WSW18.5 kmh WSW 5.8 mph9.3 kmh 29.64 in1003.7 mb - 0.00 in0.0 mm 0.01 in0.3 mm
05:15 PM 67.5°F19.7°C 54.9°F12.7°C 64% 13.8 mph WSW22.2 kmh WSW 9.2 mph14.8 kmh 29.64 in1003.7 mb - 0.00 in0.0 mm 0.01 in0.3 mm
05:10 PM 67.9°F19.9°C 54.8°F12.7°C 63% 18.4 mph SW29.6 kmh SW 11.5 mph18.5 kmh 29.64 in1003.7 mb - 0.00 in0.0 mm 0.01 in0.3 mm
05:00 PM 69.1°F20.6°C 56.0°F13.3°C 63% 15.0 mph SW24.1 kmh SW 8.1 mph13.0 kmh 29.63 in1003.4 mb - 0.00 in0.0 mm 0.01 in0.3 mm
04:55 PM 70.1°F21.2°C 57.4°F14.1°C 64% 13.8 mph NW22.2 kmh NW 5.8 mph9.3 kmh 29.63 in1003.4 mb - 0.00 in0.0 mm 0.01 in0.3 mm
04:50 PM 70.5°F21.4°C 57.3°F14.1°C 63% 11.5 mph WSW18.5 kmh WSW 5.8 mph9.3 kmh 29.62 in1003.0 mb - 0.00 in0.0 mm 0.01 in0.3 mm
04:45 PM 70.7°F21.5°C 57.9°F14.4°C 64% 15.0 mph WSW24.1 kmh WSW 5.8 mph9.3 kmh 29.62 in1003.0 mb - 0.00 in0.0 mm 0.01 in0.3 mm
04:40 PM 70.9°F21.6°C 58.1°F14.5°C 64% 8.1 mph SW13.0 kmh SW 5.8 mph9.3 kmh 29.62 in1003.0 mb - 0.00 in0.0 mm 0.01 in0.3 mm
04:35 PM 71.1°F21.7°C 58.7°F14.8°C 65% 12.7 mph WNW20.4 kmh WNW 5.8 mph9.3 kmh 29.61 in1002.7 mb - 0.00 in0.0 mm 0.01 in0.3 mm
04:30 PM 70.9°F21.6°C 58.1°F14.5°C 64% 10.4 mph SW16.7 kmh SW 8.1 mph13.0 kmh 29.61 in1002.7 mb - 0.00 in0.0 mm 0.01 in0.3 mm
04:25 PM 69.9°F21.1°C 57.6°F14.2°C 65% 11.5 mph WSW18.5 kmh WSW 5.8 mph9.3 kmh 29.61 in1002.7 mb - 0.00 in0.0 mm 0.01 in0.3 mm
04:20 PM 70.4°F21.3°C 56.7°F13.7°C 62% 9.2 mph W14.8 kmh W 5.8 mph9.3 kmh 29.61 in1002.7 mb - 0.00 in0.0 mm 0.01 in0.3 mm
04:15 PM 70.5°F21.4°C 56.4°F13.6°C 61% 11.5 mph SW18.5 kmh SW 5.8 mph9.3 kmh 29.61 in1002.7 mb - 0.00 in0.0 mm 0.01 in0.3 mm
04:10 PM 70.5°F21.4°C 55.9°F13.3°C 60% 10.4 mph SW16.7 kmh SW 6.9 mph11.1 kmh 29.61 in1002.7 mb - 0.00 in0.0 mm 0.01 in0.3 mm
04:00 PM 72.3°F22.4°C 55.7°F13.2°C 56% 18.4 mph SW29.6 kmh SW 9.2 mph14.8 kmh 29.60 in1002.4 mb - 0.00 in0.0 mm 0.01 in0.3 mm
03:55 PM 72.5°F22.5°C 55.9°F13.3°C 56% 16.1 mph SW25.9 kmh SW 8.1 mph13.0 kmh 29.60 in1002.4 mb - 0.00 in0.0 mm 0.01 in0.3 mm
03:50 PM 72.6°F22.6°C 55.5°F13.1°C 55% 19.6 mph SSW31.5 kmh SSW 11.5 mph18.5 kmh 29.61 in1002.7 mb - 0.00 in0.0 mm 0.01 in0.3 mm
03:45 PM 73.2°F22.9°C 57.1°F13.9°C 57% 27.6 mph S44.4 kmh S 15.0 mph24.1 kmh 29.61 in1002.7 mb - 0.00 in0.0 mm 0.01 in0.3 mm
03:40 PM 73.3°F22.9°C 57.6°F14.2°C 58% 13.8 mph SSW22.2 kmh SSW 11.5 mph18.5 kmh 29.61 in1002.7 mb - 0.00 in0.0 mm 0.01 in0.3 mm
03:35 PM 72.0°F22.2°C 56.4°F13.6°C 58% 12.7 mph SW20.4 kmh SW 6.9 mph11.1 kmh 29.61 in1002.7 mb - 0.00 in0.0 mm 0.01 in0.3 mm
03:30 PM 72.7°F22.6°C 57.0°F13.9°C 58% 19.6 mph SW31.5 kmh SW 11.5 mph18.5 kmh 29.61 in1002.7 mb - 0.00 in0.0 mm 0.01 in0.3 mm
03:25 PM 72.5°F22.5°C 57.4°F14.1°C 59% 17.3 mph SW27.8 kmh SW 9.2 mph14.8 kmh 29.60 in1002.4 mb - 0.00 in0.0 mm 0.01 in0.3 mm
03:20 PM 73.0°F22.8°C 57.8°F14.3°C 59% 18.4 mph WSW29.6 kmh WSW 10.4 mph16.7 kmh 29.60 in1002.4 mb - 0.00 in0.0 mm 0.01 in0.3 mm
03:15 PM 73.8°F23.2°C 58.1°F14.5°C 58% 23.0 mph SSW37.0 kmh SSW 18.4 mph29.6 kmh 29.61 in1002.7 mb - 0.00 in0.0 mm 0.01 in0.3 mm
03:10 PM 73.3°F22.9°C 59.1°F15.1°C 61% 20.7 mph WSW33.3 kmh WSW 10.4 mph16.7 kmh 29.61 in1002.7 mb - 0.00 in0.0 mm 0.01 in0.3 mm
03:00 PM 72.0°F22.2°C 58.7°F14.8°C 63% 12.7 mph SSW20.4 kmh SSW 6.9 mph11.1 kmh 29.61 in1002.7 mb - 0.00 in0.0 mm 0.01 in0.3 mm
02:55 PM 72.0°F22.2°C 59.2°F15.1°C 64% 19.6 mph SSW31.5 kmh SSW 12.7 mph20.4 kmh 29.61 in1002.7 mb - 0.00 in0.0 mm 0.01 in0.3 mm
02:50 PM 72.5°F22.5°C 60.1°F15.6°C 65% 24.2 mph SW38.9 kmh SW 12.7 mph20.4 kmh 29.61 in1002.7 mb - 0.00 in0.0 mm 0.01 in0.3 mm
02:45 PM 72.5°F22.5°C 60.5°F15.8°C 66% 12.7 mph SSW20.4 kmh SSW 11.5 mph18.5 kmh 29.61 in1002.7 mb - 0.00 in0.0 mm 0.01 in0.3 mm
02:40 PM 72.3°F22.4°C 61.1°F16.2°C 68% 13.8 mph SW22.2 kmh SW 6.9 mph11.1 kmh 29.62 in1003.0 mb - 0.00 in0.0 mm 0.01 in0.3 mm
02:35 PM 71.5°F21.9°C 60.8°F16.0°C 69% 16.1 mph SSW25.9 kmh SSW 8.1 mph13.0 kmh 29.62 in1003.0 mb - 0.00 in0.0 mm 0.01 in0.3 mm
02:30 PM 71.4°F21.9°C 60.7°F15.9°C 69% 19.6 mph SW31.5 kmh SW 11.5 mph18.5 kmh 29.62 in1003.0 mb - 0.00 in0.0 mm 0.01 in0.3 mm
02:25 PM 70.6°F21.4°C 61.2°F16.2°C 72% 13.8 mph SW22.2 kmh SW 6.9 mph11.1 kmh 29.62 in1003.0 mb - 0.00 in0.0 mm 0.01 in0.3 mm
02:20 PM 70.7°F21.5°C 61.2°F16.2°C 72% 15.0 mph S24.1 kmh S 9.2 mph14.8 kmh 29.62 in1003.0 mb - 0.00 in0.0 mm 0.01 in0.3 mm
02:15 PM 69.1°F20.6°C 61.6°F16.4°C 77% 13.8 mph SW22.2 kmh SW 6.9 mph11.1 kmh 29.62 in1003.0 mb - 0.00 in0.0 mm 0.01 in0.3 mm
02:10 PM 69.9°F21.1°C 62.0°F16.7°C 76% 15.0 mph SW24.1 kmh SW 11.5 mph18.5 kmh 29.62 in1003.0 mb - 0.00 in0.0 mm 0.01 in0.3 mm
02:00 PM 68.6°F20.3°C 61.8°F16.6°C 79% 16.1 mph SSW25.9 kmh SSW 11.5 mph18.5 kmh 29.63 in1003.4 mb - 0.00 in0.0 mm 0.01 in0.3 mm
01:55 PM 68.5°F20.3°C 62.0°F16.7°C 80% 11.5 mph SW18.5 kmh SW 5.8 mph9.3 kmh 29.63 in1003.4 mb - 0.00 in0.0 mm 0.01 in0.3 mm
01:50 PM 67.3°F19.6°C 60.9°F16.1°C 80% 13.8 mph S22.2 kmh S 6.9 mph11.1 kmh 29.63 in1003.4 mb - 0.00 in0.0 mm 0.01 in0.3 mm
01:45 PM 68.0°F20.0°C 61.6°F16.4°C 80% 19.6 mph SW31.5 kmh SW 10.4 mph16.7 kmh 29.63 in1003.4 mb - 0.00 in0.0 mm 0.01 in0.3 mm
01:40 PM 68.4°F20.2°C 62.0°F16.7°C 80% 19.6 mph SSW31.5 kmh SSW 12.7 mph20.4 kmh 29.63 in1003.4 mb - 0.00 in0.0 mm 0.01 in0.3 mm
01:35 PM 67.5°F19.7°C 61.5°F16.4°C 81% 16.1 mph SW25.9 kmh SW 6.9 mph11.1 kmh 29.63 in1003.4 mb - 0.00 in0.0 mm 0.01 in0.3 mm
01:30 PM 66.7°F19.3°C 60.7°F15.9°C 81% 18.4 mph SSW29.6 kmh SSW 11.5 mph18.5 kmh 29.63 in1003.4 mb - 0.00 in0.0 mm 0.01 in0.3 mm
01:25 PM 66.4°F19.1°C 60.4°F15.8°C 81% 15.0 mph SW24.1 kmh SW 8.1 mph13.0 kmh 29.64 in1003.7 mb - 0.00 in0.0 mm 0.01 in0.3 mm
01:20 PM 65.7°F18.7°C 60.4°F15.8°C 83% 15.0 mph S24.1 kmh S 11.5 mph18.5 kmh 29.64 in1003.7 mb - 0.00 in0.0 mm 0.01 in0.3 mm
01:15 PM 66.0°F18.9°C 60.7°F15.9°C 83% 17.3 mph SW27.8 kmh SW 12.7 mph20.4 kmh 29.63 in1003.4 mb - 0.00 in0.0 mm 0.01 in0.3 mm
01:10 PM 65.8°F18.8°C 60.5°F15.8°C 83% 12.7 mph S20.4 kmh S 6.9 mph11.1 kmh 29.63 in1003.4 mb - 0.00 in0.0 mm 0.01 in0.3 mm
01:00 PM 65.8°F18.8°C 60.5°F15.8°C 83% 15.0 mph SSW24.1 kmh SSW 9.2 mph14.8 kmh 29.63 in1003.4 mb - 0.00 in0.0 mm 0.01 in0.3 mm
12:55 PM 65.8°F18.8°C 60.5°F15.8°C 83% 13.8 mph SW22.2 kmh SW 8.1 mph13.0 kmh 29.63 in1003.4 mb - 0.00 in0.0 mm 0.01 in0.3 mm
12:50 PM 66.0°F18.9°C 60.7°F15.9°C 83% 13.8 mph SW22.2 kmh SW 9.2 mph14.8 kmh 29.64 in1003.7 mb - 0.00 in0.0 mm 0.01 in0.3 mm
12:45 PM 66.0°F18.9°C 60.7°F15.9°C 83% 13.8 mph SSW22.2 kmh SSW 6.9 mph11.1 kmh 29.64 in1003.7 mb - 0.00 in0.0 mm 0.01 in0.3 mm
12:40 PM 66.0°F18.9°C 61.0°F16.1°C 84% 11.5 mph SSW18.5 kmh SSW 6.9 mph11.1 kmh 29.64 in1003.7 mb - 0.00 in0.0 mm 0.01 in0.3 mm
12:35 PM 66.0°F18.9°C 61.0°F16.1°C 84% 11.5 mph SSW18.5 kmh SSW 6.9 mph11.1 kmh 29.64 in1003.7 mb - 0.00 in0.0 mm 0.01 in0.3 mm
12:30 PM 66.7°F19.3°C 61.7°F16.5°C 84% 11.5 mph SSW18.5 kmh SSW 6.9 mph11.1 kmh 29.64 in1003.7 mb - 0.00 in0.0 mm 0.01 in0.3 mm
12:25 PM 66.4°F19.1°C 61.4°F16.3°C 84% 9.2 mph SSW14.8 kmh SSW 5.8 mph9.3 kmh 29.64 in1003.7 mb - 0.00 in0.0 mm 0.01 in0.3 mm
12:20 PM 66.0°F18.9°C 61.4°F16.3°C 85% 12.7 mph SSW20.4 kmh SSW 6.9 mph11.1 kmh 29.64 in1003.7 mb - 0.00 in0.0 mm 0.01 in0.3 mm
12:15 PM 66.0°F18.9°C 61.4°F16.3°C 85% 12.7 mph SW20.4 kmh SW 6.9 mph11.1 kmh 29.63 in1003.4 mb - 0.00 in0.0 mm 0.01 in0.3 mm
12:10 PM 66.1°F18.9°C 61.5°F16.4°C 85% 11.5 mph SSW18.5 kmh SSW 5.8 mph9.3 kmh 29.63 in1003.4 mb - 0.00 in0.0 mm 0.01 in0.3 mm
12:00 PM 66.6°F19.2°C 61.6°F16.4°C 84% 11.5 mph SW18.5 kmh SW 5.8 mph9.3 kmh 29.64 in1003.7 mb - 0.00 in0.0 mm 0.01 in0.3 mm
11:55 AM 66.6°F19.2°C 61.6°F16.4°C 84% 9.2 mph SW14.8 kmh SW 5.8 mph9.3 kmh 29.64 in1003.7 mb - 0.00 in0.0 mm 0.01 in0.3 mm
11:50 AM 66.2°F19.0°C 61.2°F16.2°C 84% 12.7 mph SSW20.4 kmh SSW 6.9 mph11.1 kmh 29.64 in1003.7 mb - 0.00 in0.0 mm 0.01 in0.3 mm
11:45 AM 66.2°F19.0°C 61.2°F16.2°C 84% 15.0 mph S24.1 kmh S 9.2 mph14.8 kmh 29.64 in1003.7 mb - 0.00 in0.0 mm 0.01 in0.3 mm
11:40 AM 66.2°F19.0°C 61.2°F16.2°C 84% 15.0 mph SSW24.1 kmh SSW 10.4 mph16.7 kmh 29.64 in1003.7 mb - 0.00 in0.0 mm 0.01 in0.3 mm
11:35 AM 66.4°F19.1°C 61.4°F16.3°C 84% 21.9 mph SW35.2 kmh SW 11.5 mph18.5 kmh 29.63 in1003.4 mb - 0.00 in0.0 mm 0.01 in0.3 mm
11:30 AM 66.4°F19.1°C 61.4°F16.3°C 84% 19.6 mph SW31.5 kmh SW 10.4 mph16.7 kmh 29.63 in1003.4 mb - 0.00 in0.0 mm 0.01 in0.3 mm
11:25 AM 66.7°F19.3°C 61.4°F16.3°C 83% 12.7 mph S20.4 kmh S 9.2 mph14.8 kmh 29.64 in1003.7 mb - 0.00 in0.0 mm 0.01 in0.3 mm
11:20 AM 67.1°F19.5°C 61.8°F16.6°C 83% 12.7 mph SSW20.4 kmh SSW 9.2 mph14.8 kmh 29.64 in1003.7 mb - 0.00 in0.0 mm 0.01 in0.3 mm
11:15 AM 67.9°F19.9°C 62.6°F17.0°C 83% 11.5 mph SW18.5 kmh SW 6.9 mph11.1 kmh 29.64 in1003.7 mb - 0.00 in0.0 mm 0.01 in0.3 mm
11:10 AM 67.5°F19.7°C 62.2°F16.8°C 83% 13.8 mph SSW22.2 kmh SSW 6.9 mph11.1 kmh 29.64 in1003.7 mb - 0.00 in0.0 mm 0.01 in0.3 mm
11:00 AM 67.5°F19.7°C 62.5°F16.9°C 84% 11.5 mph SW18.5 kmh SW 8.1 mph13.0 kmh 29.63 in1003.4 mb - 0.00 in0.0 mm 0.01 in0.3 mm
10:55 AM 67.6°F19.8°C 62.6°F17.0°C 84% 11.5 mph SW18.5 kmh SW 5.8 mph9.3 kmh 29.63 in1003.4 mb - 0.00 in0.0 mm 0.01 in0.3 mm
10:50 AM 67.5°F19.7°C 62.5°F16.9°C 84% 15.0 mph S24.1 kmh S 9.2 mph14.8 kmh 29.62 in1003.0 mb - 0.00 in0.0 mm 0.01 in0.3 mm
10:45 AM 67.8°F19.9°C 62.4°F16.9°C 83% 15.0 mph SSW24.1 kmh SSW 9.2 mph14.8 kmh 29.62 in1003.0 mb - 0.00 in0.0 mm 0.01 in0.3 mm
10:40 AM 68.2°F20.1°C 62.8°F17.1°C 83% 11.5 mph SW18.5 kmh SW 6.9 mph11.1 kmh 29.62 in1003.0 mb - 0.00 in0.0 mm 0.01 in0.3 mm
10:35 AM 68.3°F20.2°C 63.3°F17.4°C 84% 9.2 mph SW14.8 kmh SW 5.8 mph9.3 kmh 29.62 in1003.0 mb - 0.00 in0.0 mm 0.01 in0.3 mm
10:30 AM 68.2°F20.1°C 62.8°F17.1°C 83% 11.5 mph SSW18.5 kmh SSW 6.9 mph11.1 kmh 29.62 in1003.0 mb - 0.00 in0.0 mm 0.01 in0.3 mm
10:25 AM 68.0°F20.0°C 63.0°F17.2°C 84% 11.5 mph SW18.5 kmh SW 5.8 mph9.3 kmh 29.63 in1003.4 mb - 0.00 in0.0 mm 0.01 in0.3 mm
10:20 AM 68.0°F20.0°C 63.0°F17.2°C 84% 10.4 mph SW16.7 kmh SW 6.9 mph11.1 kmh 29.63 in1003.4 mb - 0.00 in0.0 mm 0.01 in0.3 mm
10:15 AM 67.6°F19.8°C 62.6°F17.0°C 84% 11.5 mph SSW18.5 kmh SSW 9.2 mph14.8 kmh 29.63 in1003.4 mb - 0.00 in0.0 mm 0.01 in0.3 mm
10:10 AM 67.3°F19.6°C 62.3°F16.8°C 84% 12.7 mph SSW20.4 kmh SSW 6.9 mph11.1 kmh 29.63 in1003.4 mb - 0.00 in0.0 mm 0.01 in0.3 mm
10:00 AM 67.3°F19.6°C 62.6°F17.0°C 85% 10.4 mph SW16.7 kmh SW 6.9 mph11.1 kmh 29.63 in1003.4 mb - 0.00 in0.0 mm 0.01 in0.3 mm
09:55 AM 67.3°F19.6°C 62.3°F16.8°C 84% 10.4 mph SSW16.7 kmh SSW 6.9 mph11.1 kmh 29.63 in1003.4 mb - 0.00 in0.0 mm 0.01 in0.3 mm
09:50 AM 67.1°F19.5°C 62.4°F16.9°C 85% 10.4 mph S16.7 kmh S 6.9 mph11.1 kmh 29.63 in1003.4 mb - 0.00 in0.0 mm 0.01 in0.3 mm
09:45 AM 67.5°F19.7°C 63.2°F17.3°C 86% 9.2 mph SSW14.8 kmh SSW 6.9 mph11.1 kmh 29.63 in1003.4 mb - 0.00 in0.0 mm 0.01 in0.3 mm
09:35 AM 67.1°F19.5°C 62.8°F17.1°C 86% 10.4 mph SW16.7 kmh SW 5.8 mph9.3 kmh 29.64 in1003.7 mb - 0.00 in0.0 mm 0.01 in0.3 mm
09:30 AM 66.7°F19.3°C 62.7°F17.1°C 87% 8.1 mph SW13.0 kmh SW 5.8 mph9.3 kmh 29.64 in1003.7 mb - 0.00 in0.0 mm 0.01 in0.3 mm
09:25 AM 66.4°F19.1°C 62.7°F17.1°C 88% 11.5 mph SW18.5 kmh SW 5.8 mph9.3 kmh 29.63 in1003.4 mb - 0.00 in0.0 mm 0.01 in0.3 mm
09:20 AM 65.8°F18.8°C 62.4°F16.9°C 89% 12.7 mph SW20.4 kmh SW 8.1 mph13.0 kmh 29.63 in1003.4 mb - 0.00 in0.0 mm 0.01 in0.3 mm
09:15 AM 64.7°F18.2°C 61.7°F16.5°C 90% 12.7 mph SSW20.4 kmh SSW 6.9 mph11.1 kmh 29.63 in1003.4 mb - 0.00 in0.0 mm 0.01 in0.3 mm
09:10 AM 64.6°F18.1°C 61.6°F16.4°C 90% 11.5 mph SW18.5 kmh SW 6.9 mph11.1 kmh 29.64 in1003.7 mb - 0.00 in0.0 mm 0.01 in0.3 mm
09:00 AM 64.6°F18.1°C 61.9°F16.6°C 91% 11.5 mph SSW18.5 kmh SSW 6.9 mph11.1 kmh 29.64 in1003.7 mb - 0.00 in0.0 mm 0.01 in0.3 mm
08:55 AM 63.9°F17.7°C 61.5°F16.4°C 92% 10.4 mph SW16.7 kmh SW 5.8 mph9.3 kmh 29.64 in1003.7 mb - 0.00 in0.0 mm 0.01 in0.3 mm
08:50 AM 63.5°F17.5°C 61.5°F16.4°C 93% 10.4 mph S16.7 kmh S 6.9 mph11.1 kmh 29.64 in1003.7 mb - 0.00 in0.0 mm 0.01 in0.3 mm
08:40 AM 62.8°F17.1°C 61.0°F16.1°C 94% 9.2 mph SSW14.8 kmh SSW 5.8 mph9.3 kmh 29.64 in1003.7 mb - 0.00 in0.0 mm 0.01 in0.3 mm
08:35 AM 62.5°F16.9°C 61.1°F16.2°C 95% 9.2 mph SSW14.8 kmh SSW 5.8 mph9.3 kmh 29.64 in1003.7 mb - 0.00 in0.0 mm 0.01 in0.3 mm
08:30 AM 62.2°F16.8°C 60.8°F16.0°C 95% 11.5 mph S18.5 kmh S 6.9 mph11.1 kmh 29.64 in1003.7 mb - 0.00 in0.0 mm 0.01 in0.3 mm
08:25 AM 62.2°F16.8°C 60.8°F16.0°C 95% 9.2 mph SW14.8 kmh SW 5.8 mph9.3 kmh 29.64 in1003.7 mb - 0.00 in0.0 mm 0.01 in0.3 mm
08:20 AM 62.1°F16.7°C 60.9°F16.1°C 96% 11.5 mph SW18.5 kmh SW 6.9 mph11.1 kmh 29.64 in1003.7 mb - 0.00 in0.0 mm 0.01 in0.3 mm
08:15 AM 62.1°F16.7°C 61.2°F16.2°C 97% 10.4 mph SW16.7 kmh SW 5.8 mph9.3 kmh 29.64 in1003.7 mb - 0.00 in0.0 mm 0.01 in0.3 mm
08:10 AM 62.1°F16.7°C 61.2°F16.2°C 97% 8.1 mph SW13.0 kmh SW 5.8 mph9.3 kmh 29.64 in1003.7 mb - 0.00 in0.0 mm 0.01 in0.3 mm
08:00 AM 62.2°F16.8°C 61.3°F16.3°C 97% 9.2 mph SW14.8 kmh SW 5.8 mph9.3 kmh 29.65 in1004.1 mb - 0.00 in0.0 mm 0.01 in0.3 mm
07:55 AM 62.2°F16.8°C 61.3°F16.3°C 97% 9.2 mph SW14.8 kmh SW 5.8 mph9.3 kmh 29.65 in1004.1 mb - 0.00 in0.0 mm 0.01 in0.3 mm
07:50 AM 62.2°F16.8°C 61.3°F16.3°C 97% 9.2 mph SSW14.8 kmh SSW 5.8 mph9.3 kmh 29.66 in1004.4 mb - 0.00 in0.0 mm 0.01 in0.3 mm
07:45 AM 62.2°F16.8°C 61.6°F16.4°C 98% 8.1 mph SW13.0 kmh SW 6.9 mph11.1 kmh 29.66 in1004.4 mb - 0.00 in0.0 mm 0.01 in0.3 mm
07:40 AM 62.2°F16.8°C 61.6°F16.4°C 98% 6.9 mph S11.1 kmh S 3.5 mph5.6 kmh 29.66 in1004.4 mb - 0.00 in0.0 mm 0.01 in0.3 mm
07:35 AM 62.2°F16.8°C 61.6°F16.4°C 98% 6.9 mph SW11.1 kmh SW 3.5 mph5.6 kmh 29.65 in1004.1 mb - 0.00 in0.0 mm 0.01 in0.3 mm
07:30 AM 62.2°F16.8°C 61.6°F16.4°C 98% 6.9 mph SW11.1 kmh SW 3.5 mph5.6 kmh 29.65 in1004.1 mb - 0.00 in0.0 mm 0.01 in0.3 mm
07:25 AM 62.2°F16.8°C 61.6°F16.4°C 98% 5.8 mph SW9.3 kmh SW 3.5 mph5.6 kmh 29.65 in1004.1 mb - 0.00 in0.0 mm 0.01 in0.3 mm
07:20 AM 62.2°F16.8°C 61.6°F16.4°C 98% 8.1 mph SW13.0 kmh SW 5.8 mph9.3 kmh 29.65 in1004.1 mb - 0.00 in0.0 mm 0.01 in0.3 mm
07:15 AM 62.2°F16.8°C 61.6°F16.4°C 98% 6.9 mph SSW11.1 kmh SSW 5.8 mph9.3 kmh 29.65 in1004.1 mb - 0.00 in0.0 mm 0.01 in0.3 mm
07:10 AM 62.1°F16.7°C 61.5°F16.4°C 98% 8.1 mph SW13.0 kmh SW 5.8 mph9.3 kmh 29.65 in1004.1 mb - 0.00 in0.0 mm 0.01 in0.3 mm
07:00 AM 62.1°F16.7°C 61.5°F16.4°C 98% 9.2 mph SW14.8 kmh SW 5.8 mph9.3 kmh 29.64 in1003.7 mb - 0.00 in0.0 mm 0.01 in0.3 mm
06:55 AM 61.9°F16.6°C 61.3°F16.3°C 98% 9.2 mph SSW14.8 kmh SSW 5.8 mph9.3 kmh 29.64 in1003.7 mb - 0.00 in0.0 mm 0.01 in0.3 mm
06:50 AM 61.9°F16.6°C 61.3°F16.3°C 98% 10.4 mph SW16.7 kmh SW 5.8 mph9.3 kmh 29.64 in1003.7 mb - 0.00 in0.0 mm 0.01 in0.3 mm
06:45 AM 61.7°F16.5°C 61.1°F16.2°C 98% 9.2 mph S14.8 kmh S 5.8 mph9.3 kmh 29.64 in1003.7 mb - 0.00 in0.0 mm 0.01 in0.3 mm
06:40 AM 61.4°F16.3°C 61.2°F16.2°C 99% 8.1 mph SSW13.0 kmh SSW 4.6 mph7.4 kmh 29.64 in1003.7 mb - 0.00 in0.0 mm 0.01 in0.3 mm
06:35 AM 61.3°F16.3°C 61.0°F16.1°C 99% 10.4 mph SW16.7 kmh SW 5.8 mph9.3 kmh 29.64 in1003.7 mb - 0.00 in0.0 mm 0.01 in0.3 mm
06:30 AM 61.2°F16.2°C 60.9°F16.1°C 99% 9.2 mph SW14.8 kmh SW 5.8 mph9.3 kmh 29.64 in1003.7 mb - 0.00 in0.0 mm 0.01 in0.3 mm
06:25 AM 61.0°F16.1°C 60.7°F15.9°C 99% 9.2 mph SW14.8 kmh SW 5.8 mph9.3 kmh 29.64 in1003.7 mb - 0.00 in0.0 mm 0.01 in0.3 mm
06:20 AM 60.8°F16.0°C 60.5°F15.8°C 99% 8.1 mph S13.0 kmh S 4.6 mph7.4 kmh 29.64 in1003.7 mb - 0.00 in0.0 mm 0.01 in0.3 mm
06:15 AM 60.8°F16.0°C 60.5°F15.8°C 99% 6.9 mph SW11.1 kmh SW 4.6 mph7.4 kmh 29.63 in1003.4 mb - 0.00 in0.0 mm 0.01 in0.3 mm
06:10 AM 60.8°F16.0°C 60.5°F15.8°C 99% 6.9 mph SSW11.1 kmh SSW 3.5 mph5.6 kmh 29.63 in1003.4 mb - 0.00 in0.0 mm 0.01 in0.3 mm
06:00 AM 60.6°F15.9°C 60.3°F15.7°C 99% 8.1 mph SW13.0 kmh SW 4.6 mph7.4 kmh 29.64 in1003.7 mb - 0.00 in0.0 mm 0.01 in0.3 mm
05:55 AM 60.4°F15.8°C 60.1°F15.6°C 99% 8.1 mph SSW13.0 kmh SSW 5.8 mph9.3 kmh 29.64 in1003.7 mb - 0.00 in0.0 mm 0.01 in0.3 mm
05:50 AM 60.3°F15.7°C 60.0°F15.6°C 99% 8.1 mph SW13.0 kmh SW 4.6 mph7.4 kmh 29.63 in1003.4 mb - 0.00 in0.0 mm 0.01 in0.3 mm
05:45 AM 60.3°F15.7°C 60.0°F15.6°C 99% 6.9 mph SW11.1 kmh SW 3.5 mph5.6 kmh 29.63 in1003.4 mb - 0.00 in0.0 mm 0.01 in0.3 mm
05:40 AM 60.3°F15.7°C 60.0°F15.6°C 99% 5.8 mph SW9.3 kmh SW 3.5 mph5.6 kmh 29.63 in1003.4 mb - 0.00 in0.0 mm 0.01 in0.3 mm
05:35 AM 60.3°F15.7°C 60.0°F15.6°C 99% 6.9 mph SW11.1 kmh SW 3.5 mph5.6 kmh 29.63 in1003.4 mb - 0.00 in0.0 mm 0.01 in0.3 mm
05:30 AM 60.3°F15.7°C 60.0°F15.6°C 99% 8.1 mph SSW13.0 kmh SSW 4.6 mph7.4 kmh 29.63 in1003.4 mb - 0.00 in0.0 mm 0.01 in0.3 mm
05:25 AM 60.3°F15.7°C 60.0°F15.6°C 99% 6.9 mph SSW11.1 kmh SSW 3.5 mph5.6 kmh 29.64 in1003.7 mb - 0.00 in0.0 mm 0.01 in0.3 mm
05:20 AM 60.3°F15.7°C 60.0°F15.6°C 99% 8.1 mph SW13.0 kmh SW 4.6 mph7.4 kmh 29.64 in1003.7 mb - 0.00 in0.0 mm 0.01 in0.3 mm
05:15 AM 60.3°F15.7°C 60.0°F15.6°C 99% 6.9 mph SW11.1 kmh SW 4.6 mph7.4 kmh 29.64 in1003.7 mb - 0.00 in0.0 mm 0.01 in0.3 mm
05:10 AM 60.3°F15.7°C 60.0°F15.6°C 99% 8.1 mph S13.0 kmh S 5.8 mph9.3 kmh 29.64 in1003.7 mb - 0.00 in0.0 mm 0.01 in0.3 mm
05:00 AM 60.3°F15.7°C 60.0°F15.6°C 99% 8.1 mph SW13.0 kmh SW 4.6 mph7.4 kmh 29.65 in1004.1 mb - 0.00 in0.0 mm 0.01 in0.3 mm
04:55 AM 60.1°F15.6°C 59.8°F15.4°C 99% 9.2 mph SSW14.8 kmh SSW 5.8 mph9.3 kmh 29.65 in1004.1 mb - 0.00 in0.0 mm 0.01 in0.3 mm
04:50 AM 60.1°F15.6°C 59.8°F15.4°C 99% 8.1 mph SW13.0 kmh SW 5.8 mph9.3 kmh 29.65 in1004.1 mb - 0.00 in0.0 mm 0.01 in0.3 mm
04:45 AM 60.1°F15.6°C 59.8°F15.4°C 99% 9.2 mph SW14.8 kmh SW 5.8 mph9.3 kmh 29.65 in1004.1 mb - 0.00 in0.0 mm 0.01 in0.3 mm
04:40 AM 60.1°F15.6°C 59.8°F15.4°C 99% 8.1 mph SSW13.0 kmh SSW 4.6 mph7.4 kmh 29.65 in1004.1 mb - 0.00 in0.0 mm 0.01 in0.3 mm
04:35 AM 60.1°F15.6°C 59.8°F15.4°C 99% 8.1 mph SSW13.0 kmh SSW 5.8 mph9.3 kmh 29.64 in1003.7 mb - 0.00 in0.0 mm 0.01 in0.3 mm
04:30 AM 60.1°F15.6°C 59.8°F15.4°C 99% 6.9 mph SW11.1 kmh SW 4.6 mph7.4 kmh 29.64 in1003.7 mb - 0.00 in0.0 mm 0.01 in0.3 mm
04:25 AM 60.3°F15.7°C 60.0°F15.6°C 99% 9.2 mph SW14.8 kmh SW 4.6 mph7.4 kmh 29.65 in1004.1 mb - 0.00 in0.0 mm 0.01 in0.3 mm
04:20 AM 60.4°F15.8°C 60.1°F15.6°C 99% 8.1 mph SW13.0 kmh SW 4.6 mph7.4 kmh 29.65 in1004.1 mb - 0.00 in0.0 mm 0.01 in0.3 mm
04:15 AM 60.4°F15.8°C 60.1°F15.6°C 99% 9.2 mph SW14.8 kmh SW 5.8 mph9.3 kmh 29.65 in1004.1 mb - 0.00 in0.0 mm 0.01 in0.3 mm
04:10 AM 60.6°F15.9°C 60.3°F15.7°C 99% 10.4 mph S16.7 kmh S 5.8 mph9.3 kmh 29.65 in1004.1 mb - 0.00 in0.0 mm 0.01 in0.3 mm
04:00 AM 60.6°F15.9°C 60.3°F15.7°C 99% 10.4 mph S16.7 kmh S 5.8 mph9.3 kmh 29.65 in1004.1 mb - 0.00 in0.0 mm 0.01 in0.3 mm
03:55 AM 60.6°F15.9°C 60.3°F15.7°C 99% 11.5 mph SW18.5 kmh SW 6.9 mph11.1 kmh 29.65 in1004.1 mb - 0.00 in0.0 mm 0.01 in0.3 mm
03:50 AM 60.6°F15.9°C 60.3°F15.7°C 99% 12.7 mph SW20.4 kmh SW 6.9 mph11.1 kmh 29.65 in1004.1 mb - 0.00 in0.0 mm 0.01 in0.3 mm
03:45 AM 60.6°F15.9°C 60.3°F15.7°C 99% 12.7 mph S20.4 kmh S 6.9 mph11.1 kmh 29.65 in1004.1 mb - 0.00 in0.0 mm 0.01 in0.3 mm
03:40 AM 60.6°F15.9°C 60.3°F15.7°C 99% 9.2 mph SW14.8 kmh SW 5.8 mph9.3 kmh 29.65 in1004.1 mb - 0.00 in0.0 mm 0.01 in0.3 mm
03:35 AM 60.6°F15.9°C 60.3°F15.7°C 99% 9.2 mph SW14.8 kmh SW 5.8 mph9.3 kmh 29.64 in1003.7 mb - 0.00 in0.0 mm 0.01 in0.3 mm
03:30 AM 60.6°F15.9°C 60.3°F15.7°C 99% 10.4 mph S16.7 kmh S 5.8 mph9.3 kmh 29.64 in1003.7 mb - 0.00 in0.0 mm 0.01 in0.3 mm
03:25 AM 60.4°F15.8°C 60.1°F15.6°C 99% 10.4 mph SW16.7 kmh SW 8.1 mph13.0 kmh 29.65 in1004.1 mb - 0.00 in0.0 mm 0.01 in0.3 mm
03:20 AM 60.3°F15.7°C 60.0°F15.6°C 99% 11.5 mph SW18.5 kmh SW 5.8 mph9.3 kmh 29.65 in1004.1 mb - 0.00 in0.0 mm 0.01 in0.3 mm
03:15 AM 60.3°F15.7°C 60.0°F15.6°C 99% 11.5 mph SW18.5 kmh SW 5.8 mph9.3 kmh 29.65 in1004.1 mb - 0.00 in0.0 mm 0.01 in0.3 mm
03:10 AM 59.6°F15.3°C 59.4°F15.2°C 99% 9.2 mph SW14.8 kmh SW 5.8 mph9.3 kmh 29.65 in1004.1 mb - 0.00 in0.0 mm 0.01 in0.3 mm
03:00 AM 59.2°F15.1°C 58.9°F14.9°C 99% 9.2 mph SW14.8 kmh SW 5.8 mph9.3 kmh 29.65 in1004.1 mb - 0.00 in0.0 mm 0.01 in0.3 mm
02:55 AM 58.8°F14.9°C 58.5°F14.7°C 99% 9.2 mph SSW14.8 kmh SSW 5.8 mph9.3 kmh 29.65 in1004.1 mb - 0.00 in0.0 mm 0.01 in0.3 mm
02:50 AM 58.3°F14.6°C 58.0°F14.4°C 99% 8.1 mph S13.0 kmh S 5.8 mph9.3 kmh 29.65 in1004.1 mb - 0.00 in0.0 mm 0.01 in0.3 mm
02:45 AM 58.0°F14.4°C 57.7°F14.3°C 99% 8.1 mph SSW13.0 kmh SSW 5.8 mph9.3 kmh 29.65 in1004.1 mb - 0.00 in0.0 mm 0.01 in0.3 mm
02:40 AM 57.6°F14.2°C 57.4°F14.1°C 99% 8.1 mph SSW13.0 kmh SSW 4.6 mph7.4 kmh 29.66 in1004.4 mb - 0.00 in0.0 mm 0.01 in0.3 mm
02:35 AM 57.4°F14.1°C 57.1°F13.9°C 99% 6.9 mph SSW11.1 kmh SSW 3.5 mph5.6 kmh 29.66 in1004.4 mb - 0.00 in0.0 mm 0.01 in0.3 mm
02:30 AM 57.0°F13.9°C 56.7°F13.7°C 99% 6.9 mph SSW11.1 kmh SSW 3.5 mph5.6 kmh 29.66 in1004.4 mb - 0.00 in0.0 mm 0.01 in0.3 mm
02:25 AM 56.8°F13.8°C 56.5°F13.6°C 99% 6.9 mph S11.1 kmh S 3.5 mph5.6 kmh 29.66 in1004.4 mb - 0.00 in0.0 mm 0.01 in0.3 mm
02:20 AM 56.6°F13.7°C 56.3°F13.5°C 99% 5.8 mph SSW9.3 kmh SSW 3.5 mph5.6 kmh 29.66 in1004.4 mb - 0.00 in0.0 mm 0.01 in0.3 mm
02:15 AM 56.5°F13.6°C 56.2°F13.4°C 99% 6.9 mph SSW11.1 kmh SSW 3.5 mph5.6 kmh 29.67 in1004.7 mb - 0.00 in0.0 mm 0.01 in0.3 mm
02:10 AM 56.1°F13.4°C 55.8°F13.2°C 99% 4.6 mph SW7.4 kmh SW 3.5 mph5.6 kmh 29.67 in1004.7 mb - 0.00 in0.0 mm 0.01 in0.3 mm
02:00 AM 55.9°F13.3°C 55.6°F13.1°C 99% 4.6 mph SW7.4 kmh SW 2.3 mph3.7 kmh 29.67 in1004.7 mb - 0.00 in0.0 mm 0.01 in0.3 mm
01:55 AM 55.9°F13.3°C 55.6°F13.1°C 99% 5.8 mph SW9.3 kmh SW 3.5 mph5.6 kmh 29.67 in1004.7 mb - 0.00 in0.0 mm 0.01 in0.3 mm
01:50 AM 55.9°F13.3°C 55.6°F13.1°C 99% 6.9 mph S11.1 kmh S 3.5 mph5.6 kmh 29.67 in1004.7 mb - 0.00 in0.0 mm 0.01 in0.3 mm
01:45 AM 55.8°F13.2°C 55.5°F13.1°C 99% 5.8 mph SSW9.3 kmh SSW 3.5 mph5.6 kmh 29.67 in1004.7 mb - 0.00 in0.0 mm 0.01 in0.3 mm
01:40 AM 55.8°F13.2°C 55.5°F13.1°C 99% 4.6 mph SW7.4 kmh SW 3.5 mph5.6 kmh 29.68 in1005.1 mb - 0.00 in0.0 mm 0.01 in0.3 mm
01:35 AM 55.8°F13.2°C 55.5°F13.1°C 99% 4.6 mph SSW7.4 kmh SSW 2.3 mph3.7 kmh 29.68 in1005.1 mb - 0.00 in0.0 mm 0.01 in0.3 mm
01:30 AM 55.8°F13.2°C 55.5°F13.1°C 99% 4.6 mph SSW7.4 kmh SSW 2.3 mph3.7 kmh 29.68 in1005.1 mb - 0.00 in0.0 mm 0.01 in0.3 mm
01:25 AM 55.8°F13.2°C 55.5°F13.1°C 99% 5.8 mph SW9.3 kmh SW 3.5 mph5.6 kmh 29.67 in1004.7 mb - 0.00 in0.0 mm 0.01 in0.3 mm
01:20 AM 55.8°F13.2°C 55.5°F13.1°C 99% 5.8 mph S9.3 kmh S 3.5 mph5.6 kmh 29.67 in1004.7 mb - 0.01 in0.3 mm 0.01 in0.3 mm
01:15 AM 55.6°F13.1°C 55.3°F12.9°C 99% 4.6 mph S7.4 kmh S 3.5 mph5.6 kmh 29.67 in1004.7 mb - 0.01 in0.3 mm 0.01 in0.3 mm
01:10 AM 55.6°F13.1°C 55.3°F12.9°C 99% 5.8 mph SSW9.3 kmh SSW 3.5 mph5.6 kmh 29.67 in1004.7 mb - 0.01 in0.3 mm 0.01 in0.3 mm
01:00 AM 55.6°F13.1°C 55.3°F12.9°C 99% 1.2 mph S1.9 kmh S 1.2 mph1.9 kmh 29.66 in1004.4 mb - 0.01 in0.3 mm 0.01 in0.3 mm
12:55 AM 55.6°F13.1°C 55.3°F12.9°C 99% 3.5 mph S5.6 kmh S 2.3 mph3.7 kmh 29.66 in1004.4 mb - 0.01 in0.3 mm 0.01 in0.3 mm
12:50 AM 55.6°F13.1°C 55.3°F12.9°C 99% Calm Calm -- 29.67 in1004.7 mb - 0.01 in0.3 mm 0.01 in0.3 mm
12:45 AM 55.6°F13.1°C 55.0°F12.8°C 98% Calm Calm -- 29.67 in1004.7 mb - 0.01 in0.3 mm 0.01 in0.3 mm
12:40 AM 55.6°F13.1°C 55.0°F12.8°C 98% 1.2 mph SSE1.9 kmh SSE 2.3 mph3.7 kmh 29.67 in1004.7 mb - 0.01 in0.3 mm 0.01 in0.3 mm
12:35 AM 55.6°F13.1°C 55.0°F12.8°C 98% 6.9 mph N11.1 kmh N 3.5 mph5.6 kmh 29.68 in1005.1 mb - 0.01 in0.3 mm 0.01 in0.3 mm
12:30 AM 55.6°F13.1°C 55.0°F12.8°C 98% 3.5 mph SW5.6 kmh SW 1.2 mph1.9 kmh 29.68 in1005.1 mb - 0.01 in0.3 mm 0.01 in0.3 mm
12:25 AM 55.6°F13.1°C 55.0°F12.8°C 98% Calm Calm -- 29.69 in1005.4 mb - 0.01 in0.3 mm 0.01 in0.3 mm
12:20 AM 55.6°F13.1°C 55.0°F12.8°C 98% Calm Calm -- 29.69 in1005.4 mb - 0.00 in0.0 mm 0.32 in8.1 mm
12:15 AM 55.6°F13.1°C 55.0°F12.8°C 98% Calm Calm -- 29.70 in1005.8 mb - 0.01 in0.3 mm 0.32 in8.1 mm
12:10 AM 55.8°F13.2°C 55.2°F12.9°C 98% Calm Calm -- 29.70 in1005.8 mb - 0.03 in0.8 mm 0.31 in7.9 mm
12:00 AM 55.9°F13.3°C 55.1°F12.8°C 97% Calm Calm -- 29.69 in1005.4 mb - 0.28 in7.1 mm 0.28 in7.1 mm